Maris — V2CH8 — position and weather

sailwx.info

Track history (hours):
 
Tides and Currents Weather Stations Pressure Air Temp Water Temp Dewpoint Dewpoint Depression Visibility Wind Speed Wind Dir Waves Ship Positions

Maris

Last reported at 2017-Sep-14 20:44 UTC. Time now 2017-Sep-24 19:38 UTC.
Position N 39°37' W 010°12'.
Warning: this ship's position is 9 days out of date.

Length 101 m; draft 5.6 m.

Type: Ship (hazmat cat A). MMSI: 305006000.

Date/timePositionNaut miles runAvg speedWind from/ knotsBaromVisibWave heightAir tempDewpointWater temp
2017-Sep-14 20:44N 39°37' W 010°12'410.2
2017-Sep-14 20:18N 39°33' W 010°16'310.5
2017-Sep-14 20:00N 39°31' W 010°18'511.0
2017-Sep-14 19:30N 39°26' W 010°23'611.1
2017-Sep-14 19:00N 39°22' W 010°27'611.3
2017-Sep-14 18:30N 39°18' W 010°31'611.4
2017-Sep-14 18:00N 39°13' W 010°36'611.6
2017-Sep-14 17:30N 39°08' W 010°40'611.8
2017-Sep-14 17:00N 39°04' W 010°45'611.9
2017-Sep-14 16:30N 38°59' W 010°49'612.0
2017-Sep-14 16:00N 38°54' W 010°54'612.0
2017-Sep-14 15:30N 38°49' W 010°58'712.0
2017-Sep-14 14:57N 38°44' W 011°03'612.1
2017-Sep-14 14:29N 38°39' W 011°08'  
2017-Sep-10 21:47N 37°03' W 012°36'2514.6
2017-Sep-10 20:03N 37°24' W 012°18'  
2017-Sep-08 08:55N 40°07' W 009°42'511.0
2017-Sep-08 08:30N 40°03' W 009°46'510.8
2017-Sep-08 08:00N 39°59' W 009°50'510.5
2017-Sep-08 07:30N 39°55' W 009°53'5 9.8
2017-Sep-08 07:01N 39°51' W 009°57'3 5.1
2017-Sep-08 06:31N 39°49' W 009°60'5 9.9
2017-Sep-08 06:00N 39°46' W 010°04'510.0
2017-Sep-08 05:30N 39°42' W 010°08'5 9.7
2017-Sep-08 05:00N 39°38' W 010°12'5 9.8
2017-Sep-08 04:31N 39°34' W 010°16'5 9.7
2017-Sep-08 04:01N 39°30' W 010°20'510.0
2017-Sep-08 03:31N 39°26' W 010°23'510.0
2017-Sep-08 03:00N 39°22' W 010°27'510.0
2017-Sep-08 02:30N 39°18' W 010°31'510.0
2017-Sep-08 02:00N 39°14' W 010°35'510.0
2017-Sep-08 01:31N 39°10' W 010°39'5 9.9
2017-Sep-08 01:00N 39°06' W 010°42'510.1
2017-Sep-08 00:30N 39°02' W 010°46'3 6.4
2017-Sep-08 00:00N 38°59' W 010°49'5 9.6
2017-Sep-07 23:30N 38°55' W 010°53'510.5
2017-Sep-07 23:01N 38°51' W 010°57'510.1
2017-Sep-07 22:31N 38°47' W 011°00'510.2
2017-Sep-07 22:00N 38°43' W 011°04'510.3
2017-Sep-07 21:30N 38°39' W 011°08'510.0
2017-Sep-07 21:00N 38°35' W 011°12'5 9.8
2017-Sep-07 20:30N 38°31' W 011°16'510.0
2017-Sep-07 20:01N 38°27' W 011°19'5 9.7
2017-Sep-07 19:30N 38°23' W 011°23'5 9.5
2017-Sep-07 19:00N 38°19' W 011°26'5 9.7
2017-Sep-07 18:30N 38°15' W 011°30'5 9.3
2017-Sep-07 18:00N 38°11' W 011°34'4 8.5
2017-Sep-07 17:30N 38°08' W 011°37'4 8.4
2017-Sep-07 17:00N 38°04' W 011°40'4 8.4
2017-Sep-07 16:30N 38°01' W 011°43'6 7.9
2017-Sep-07 15:44N 37°56' W 011°48'2 8.4
2017-Sep-07 15:28N 37°54' W 011°49'5 8.4
2017-Sep-07 14:51N 37°50' W 011°53'111 8.2
2017-Sep-07 01:19N 36°21' W 013°16'28 8.3
2017-Sep-06 21:56N 35°58' W 013°36'7410.0
2017-Sep-06 14:33N 34°59' W 014°30'111.0
2017-Sep-06 14:26N 34°58' W 014°31'  
Track history (hours):
 
Tides and Currents Weather Stations Pressure Air Temp Water Temp Dewpoint Dewpoint Depression Visibility Wind Speed Wind Dir Waves Ship Positions

Maris

Last reported at 2017-Sep-14 20:44 UTC. Time now 2017-Sep-24 19:38 UTC.
Position N 39°37' W 010°12'.
Warning: this ship's position is 9 days out of date.

Length 101 m; draft 5.6 m.

Type: Ship (hazmat cat A). MMSI: 305006000.

Date/timePositionNaut miles runAvg speedWind from/ knotsBaromVisibWave heightAir tempDewpointWater temp
2017-Sep-14 20:44N 39°37' W 010°12'410.2
2017-Sep-14 20:18N 39°33' W 010°16'310.5
2017-Sep-14 20:00N 39°31' W 010°18'511.0
2017-Sep-14 19:30N 39°26' W 010°23'611.1
2017-Sep-14 19:00N 39°22' W 010°27'611.3
2017-Sep-14 18:30N 39°18' W 010°31'611.4
2017-Sep-14 18:00N 39°13' W 010°36'611.6
2017-Sep-14 17:30N 39°08' W 010°40'611.8
2017-Sep-14 17:00N 39°04' W 010°45'611.9
2017-Sep-14 16:30N 38°59' W 010°49'612.0
2017-Sep-14 16:00N 38°54' W 010°54'612.0
2017-Sep-14 15:30N 38°49' W 010°58'712.0
2017-Sep-14 14:57N 38°44' W 011°03'612.1
2017-Sep-14 14:29N 38°39' W 011°08'  
2017-Sep-10 21:47N 37°03' W 012°36'2514.6
2017-Sep-10 20:03N 37°24' W 012°18'  
2017-Sep-08 08:55N 40°07' W 009°42'511.0
2017-Sep-08 08:30N 40°03' W 009°46'510.8
2017-Sep-08 08:00N 39°59' W 009°50'510.5
2017-Sep-08 07:30N 39°55' W 009°53'5 9.8
2017-Sep-08 07:01N 39°51' W 009°57'3 5.1
2017-Sep-08 06:31N 39°49' W 009°60'5 9.9
2017-Sep-08 06:00N 39°46' W 010°04'510.0
2017-Sep-08 05:30N 39°42' W 010°08'5 9.7
2017-Sep-08 05:00N 39°38' W 010°12'5 9.8
2017-Sep-08 04:31N 39°34' W 010°16'5 9.7
2017-Sep-08 04:01N 39°30' W 010°20'510.0
2017-Sep-08 03:31N 39°26' W 010°23'510.0
2017-Sep-08 03:00N 39°22' W 010°27'510.0
2017-Sep-08 02:30N 39°18' W 010°31'510.0
2017-Sep-08 02:00N 39°14' W 010°35'510.0
2017-Sep-08 01:31N 39°10' W 010°39'5 9.9
2017-Sep-08 01:00N 39°06' W 010°42'510.1
2017-Sep-08 00:30N 39°02' W 010°46'3 6.4
2017-Sep-08 00:00N 38°59' W 010°49'5 9.6
2017-Sep-07 23:30N 38°55' W 010°53'510.5
2017-Sep-07 23:01N 38°51' W 010°57'510.1
2017-Sep-07 22:31N 38°47' W 011°00'510.2
2017-Sep-07 22:00N 38°43' W 011°04'510.3
2017-Sep-07 21:30N 38°39' W 011°08'510.0
2017-Sep-07 21:00N 38°35' W 011°12'5 9.8
2017-Sep-07 20:30N 38°31' W 011°16'510.0
2017-Sep-07 20:01N 38°27' W 011°19'5 9.7
2017-Sep-07 19:30N 38°23' W 011°23'5 9.5
2017-Sep-07 19:00N 38°19' W 011°26'5 9.7
2017-Sep-07 18:30N 38°15' W 011°30'5 9.3
2017-Sep-07 18:00N 38°11' W 011°34'4 8.5
2017-Sep-07 17:30N 38°08' W 011°37'4 8.4
2017-Sep-07 17:00N 38°04' W 011°40'4 8.4
2017-Sep-07 16:30N 38°01' W 011°43'6 7.9
2017-Sep-07 15:44N 37°56' W 011°48'2 8.4
2017-Sep-07 15:28N 37°54' W 011°49'5 8.4
2017-Sep-07 14:51N 37°50' W 011°53'111 8.2
2017-Sep-07 01:19N 36°21' W 013°16'28 8.3
2017-Sep-06 21:56N 35°58' W 013°36'7410.0
2017-Sep-06 14:33N 34°59' W 014°30'111.0
2017-Sep-06 14:26N 34°58' W 014°31'  

Dump ship's entire track history